Montandon, Pennsylvania
Current Conditions -  °F | °C
As of 7:53 AM on Thursday 23 Oct 2014 (Local Time) from KSEG Reporting Station
Overcast Overcast  
Wind Chill: 52°   Ceiling: 2900
Heat Index: 52°   Visibility: 10mi
Dew Point: 42°   Wind: 13mph
Humidity: 69%   Direction: 330°NNW
Pressure: 29.91"   Gusts: NA
Location:  40.97°N, 76.85°W
Report Text: KSEG 231153Z AUTO 33011KT 10SM OVC029 11/06 A2991 RMK AO2 SLP129 60000 T01110056 10111 20100 53001
Loading
Personal Weather Stations






























Interactive Weather Map
Tropical Storm Tracking
New forecast layout! Learn more

10-Day Weather Forecast

Advertisements
Track Severe Weather on mobile